Time;durP1;ratioP1;P1;durP2;ratioP2;P2;SDS_P1;SDS_P2;PMS_P1;PMS_P2;Temp;Humidity;BMP_temperature;BMP_pressure;BME280_temperature;BME280_humidity;BME280_pressure;Samples;Min_cycle;Max_cycle;Signal;HPM_P1;HPM_P2
2022/09/30 00:02:25;;;;;;;7.50;3.33;;;;;6.90;93098.00;;;;7393470;19;20129;-75
2022/09/30 00:04:55;;;;;;;5.50;3.20;;;;;6.80;93103.00;;;;7396307;19;20136;-75
2022/09/30 00:07:31;;;;;;;5.50;3.30;;;;;6.80;93093.00;;;;7395589;19;20133;-75
2022/09/30 00:09:59;;;;;;;7.80;3.50;;;;;6.70;93105.00;;;;7395948;19;20596;-75
2022/09/30 00:12:30;;;;;;;5.43;3.23;;;;;6.70;93101.00;;;;7394529;19;20216;-75
2022/09/30 00:15:04;;;;;;;12.00;4.40;;;;;6.80;93102.00;;;;7394241;19;20139;-75
2022/09/30 00:17:32;;;;;;;8.57;3.77;;;;;6.80;93110.00;;;;7395540;19;20196;-75
2022/09/30 00:20:03;;;;;;;8.07;3.80;;;;;6.80;93116.00;;;;7393956;19;20151;-75
2022/09/30 00:22:37;;;;;;;8.90;3.97;;;;;6.80;93105.00;;;;7393622;19;20145;-75
2022/09/30 00:25:04;;;;;;;8.07;4.03;;;;;6.80;93107.00;;;;7393384;19;20605;-75
2022/09/30 00:27:32;;;;;;;7.83;3.60;;;;;6.90;93105.00;;;;7394890;19;20148;-75
2022/09/30 00:30:06;;;;;;;7.07;3.50;;;;;6.80;93108.00;;;;7391607;19;20625;-76
2022/09/30 00:32:34;;;;;;;16.57;4.17;;;;;6.80;93106.00;;;;7393205;19;20142;-75
2022/09/30 00:35:01;;;;;;;6.03;3.87;;;;;6.70;93104.00;;;;7394696;19;20129;-75
2022/09/30 00:37:35;;;;;;;9.37;3.70;;;;;6.60;93110.00;;;;7395279;19;20132;-75
2022/09/30 00:40:02;;;;;;;8.17;4.13;;;;;6.70;93121.00;;;;7393243;19;20129;-75
2022/09/30 00:42:32;;;;;;;9.93;4.20;;;;;6.90;93113.00;;;;7394293;19;20129;-75
2022/09/30 00:45:09;;;;;;;7.13;3.80;;;;;6.90;93111.00;;;;7394580;19;20587;-75
2022/09/30 00:47:49;;;;;;;6.93;4.20;;;;;6.90;93116.00;;;;7394762;19;20128;-75
2022/09/30 00:50:29;;;;;;;14.97;4.63;;;;;6.90;93119.00;;;;7394505;19;20121;-75
2022/09/30 00:53:21;;;;;;;6.73;3.77;;;;;6.90;93108.00;;;;7395375;19;20480;-75
2022/09/30 00:56:28;;;;;;;9.67;4.30;;;;;6.90;93108.00;;;;7392161;19;20242;-75
2022/09/30 00:59:18;;;;;;;10.87;3.70;;;;;6.90;93113.00;;;;7393908;19;20129;-75
2022/09/30 01:01:52;;;;;;;12.10;4.00;;;;;7.00;93119.00;;;;7391760;19;20157;-75
2022/09/30 01:04:23;;;;;;;8.47;3.70;;;;;7.10;93130.00;;;;7393746;19;20129;-75
2022/09/30 01:06:50;;;;;;;7.00;3.20;;;;;7.10;93124.00;;;;7392732;19;20499;-76
2022/09/30 01:09:25;;;;;;;6.53;3.73;;;;;7.00;93119.00;;;;7393864;19;20140;-75
2022/09/30 01:11:52;;;;;;;9.93;3.90;;;;;7.20;93113.00;;;;7388686;19;20180;-75
2022/09/30 01:14:24;;;;;;;7.73;3.60;;;;;7.20;93120.00;;;;7391508;19;20128;-75
2022/09/30 01:17:16;;;;;;;6.60;3.20;;;;;7.20;93122.00;;;;7394352;19;20457;-76
2022/09/30 01:20:15;;;;;;;8.40;4.00;;;;;7.40;93125.00;;;;7395138;19;20192;-73
2022/09/30 01:23:22;;;;;;;3.67;3.30;;;;;7.20;93122.00;;;;7392768;19;20140;-73
2022/09/30 01:26:15;;;;;;;6.53;3.40;;;;;7.20;93128.00;;;;7390847;19;20607;-74
2022/09/30 01:29:20;;;;;;;6.00;3.20;;;;;7.20;93129.00;;;;7392847;19;20133;-73
2022/09/30 01:32:12;;;;;;;8.23;3.63;;;;;7.20;93127.00;;;;7392404;19;20121;-74
2022/09/30 01:34:58;;;;;;;7.20;3.37;;;;;7.20;93136.00;;;;7392341;19;20849;-73
2022/09/30 01:37:51;;;;;;;8.40;3.07;;;;;7.30;93134.00;;;;7393888;19;20144;-75
2022/09/30 01:40:46;;;;;;;9.20;3.40;;;;;7.30;93137.00;;;;7393914;19;20607;-75
2022/09/30 01:43:33;;;;;;;5.90;3.10;;;;;7.40;93142.00;;;;7391549;19;20628;-75
2022/09/30 01:46:27;;;;;;;6.57;3.80;;;;;7.60;93139.00;;;;7391409;19;20616;-75
2022/09/30 01:48:58;;;;;;;9.10;3.53;;;;;7.50;93144.00;;;;7392705;19;20147;-75
2022/09/30 01:51:45;;;;;;;3.20;2.83;;;;;7.60;93142.00;;;;7390887;19;20551;-75
2022/09/30 01:54:40;;;;;;;7.97;3.07;;;;;7.90;93147.00;;;;7391588;19;20196;-76
2022/09/30 01:57:28;;;;;;;5.10;2.80;;;;;7.70;93140.00;;;;7388101;19;20135;-75
2022/09/30 02:00:07;;;;;;;5.77;3.03;;;;;7.70;93154.00;;;;7391751;19;20133;-75
2022/09/30 02:02:56;;;;;;;8.90;3.70;;;;;7.50;93151.00;;;;7391201;19;20125;-75
2022/09/30 02:05:30;;;;;;;10.80;3.87;;;;;7.60;93153.00;;;;7392027;19;20128;-75
2022/09/30 02:08:15;;;;;;;7.60;3.27;;;;;7.60;93147.00;;;;7391919;19;20162;-76
2022/09/30 02:11:01;;;;;;;6.10;3.53;;;;;7.50;93147.00;;;;7392085;19;20145;-74
2022/09/30 02:13:42;;;;;;;3.60;2.80;;;;;7.40;93156.00;;;;7390169;19;20644;-76
2022/09/30 02:16:21;;;;;;;6.23;3.33;;;;;7.50;93159.00;;;;7390295;19;20141;-76
2022/09/30 02:19:10;;;;;;;8.77;3.67;;;;;7.50;93166.00;;;;7390384;19;20445;-75
2022/09/30 02:21:41;;;;;;;6.53;3.53;;;;;7.40;93173.00;;;;7390987;19;20474;-73
2022/09/30 02:24:17;;;;;;;5.30;3.77;;;;;7.30;93163.00;;;;7388559;19;20132;-75
2022/09/30 02:26:52;;;;;;;4.00;3.20;;;;;7.30;93170.00;;;;7388722;19;20137;-74
2022/09/30 02:29:38;;;;;;;7.20;3.40;;;;;7.50;93163.00;;;;7391945;19;20146;-74
2022/09/30 02:32:14;;;;;;;8.67;3.33;;;;;7.60;93159.00;;;;7390005;19;20239;-73
2022/09/30 02:35:20;;;;;;;5.40;3.10;;;;;7.60;93160.00;;;;7391284;19;20876;-73
2022/09/30 02:37:53;;;;;;;9.77;3.43;;;;;7.60;93172.00;;;;7388774;19;20141;-74
2022/09/30 02:41:03;;;;;;;6.57;3.10;;;;;7.60;93168.00;;;;7389438;19;20128;-74
2022/09/30 02:43:31;;;;;;;4.50;2.80;;;;;7.70;93175.00;;;;7387937;19;20129;-74
2022/09/30 02:46:18;;;;;;;9.43;3.03;;;;;7.70;93170.00;;;;7390769;19;20205;-73
2022/09/30 02:49:25;;;;;;;7.60;3.10;;;;;7.50;93176.00;;;;7391020;19;20646;-73
2022/09/30 02:52:21;;;;;;;3.33;2.20;;;;;7.40;93175.00;;;;7390524;19;20196;-76
2022/09/30 02:55:05;;;;;;;7.03;2.60;;;;;7.30;93178.00;;;;7391458;19;20133;-76
2022/09/30 02:58:06;;;;;;;6.17;2.70;;;;;7.50;93175.00;;;;7386659;19;20175;-73
2022/09/30 03:00:34;;;;;;;8.43;3.73;;;;;7.60;93164.00;;;;7388033;19;20137;-73
2022/09/30 03:03:19;;;;;;;10.37;4.17;;;;;7.90;93177.00;;;;7389201;19;20139;-76
2022/09/30 03:05:49;;;;;;;6.50;3.90;;;;;8.00;93179.00;;;;7389781;19;20133;-73
2022/09/30 03:08:24;;;;;;;11.03;3.57;;;;;7.70;93182.00;;;;7389205;19;20143;-75
2022/09/30 03:10:52;;;;;;;7.13;3.80;;;;;7.70;93185.00;;;;7390453;19;20137;-76
2022/09/30 03:13:44;;;;;;;8.33;3.57;;;;;7.70;93193.00;;;;7387822;19;20196;-73
2022/09/30 03:17:03;;;;;;;6.00;3.43;;;;;7.70;93187.00;;;;7390060;19;20133;-75
2022/09/30 03:19:42;;;;;;;10.43;3.13;;;;;7.50;93189.00;;;;7387997;19;20648;-75
2022/09/30 03:22:40;;;;;;;8.30;3.33;;;;;7.40;93198.00;;;;7388155;19;20141;-76
2022/09/30 03:25:36;;;;;;;5.17;3.10;;;;;7.30;93205.00;;;;7389815;19;20159;-76
2022/09/30 03:28:32;;;;;;;5.53;2.67;;;;;7.30;93197.00;;;;7387799;19;20494;-76
2022/09/30 03:31:34;;;;;;;9.23;2.80;;;;;7.20;93205.00;;;;7387659;19;20125;-75
2022/09/30 03:34:31;;;;;;;5.83;3.30;;;;;7.30;93202.00;;;;7390859;19;20129;-76
2022/09/30 03:37:02;;;;;;;9.53;3.77;;;;;7.50;93202.00;;;;7393434;19;20536;-75
2022/09/30 03:40:11;;;;;;;6.10;3.40;;;;;7.80;93195.00;;;;7396586;19;20125;-75
2022/09/30 03:42:45;;;;;;;9.63;4.10;;;;;7.50;93194.00;;;;7394802;19;20132;-75
2022/09/30 03:45:34;;;;;;;9.67;4.40;;;;;7.50;93203.00;;;;7397032;19;20128;-75
2022/09/30 03:48:07;;;;;;;11.80;4.53;;;;;7.40;93212.00;;;;7396686;19;20459;-76
2022/09/30 03:50:43;;;;;;;7.57;4.47;;;;;7.50;93210.00;;;;7396385;19;20132;-75
2022/09/30 03:53:12;;;;;;;9.67;5.07;;;;;7.50;93212.00;;;;7396692;19;20642;-75
2022/09/30 03:55:47;;;;;;;7.40;4.97;;;;;7.50;93220.00;;;;7396313;19;20128;-75
2022/09/30 03:58:29;;;;;;;9.73;4.73;;;;;7.40;93223.00;;;;7394536;19;20519;-75
2022/09/30 04:01:12;;;;;;;9.60;5.17;;;;;7.50;93220.00;;;;7395418;19;20148;-74
2022/09/30 04:03:51;;;;;;;9.97;5.77;;;;;7.70;93227.00;;;;7402058;19;20133;-74
2022/09/30 04:06:20;;;;;;;18.83;5.97;;;;;7.70;93225.00;;;;7420744;19;20157;-75
2022/09/30 04:08:55;;;;;;;12.60;6.23;;;;;7.50;93232.00;;;;7415621;19;20137;-76
2022/09/30 04:11:22;;;;;;;7.73;5.87;;;;;7.50;93235.00;;;;7397357;19;20173;-75
2022/09/30 04:13:50;;;;;;;15.47;6.23;;;;;7.40;93237.00;;;;7398517;19;20471;-76
2022/09/30 04:16:29;;;;;;;10.37;6.40;;;;;7.20;93237.00;;;;7399074;19;20129;-76
2022/09/30 04:18:56;;;;;;;20.10;7.50;;;;;7.10;93247.00;;;;7399712;19;20132;-76
2022/09/30 04:21:27;;;;;;;20.97;6.57;;;;;7.10;93241.00;;;;7399588;19;20125;-75
2022/09/30 04:24:01;;;;;;;16.30;8.17;;;;;7.30;93235.00;;;;7397177;19;20605;-75
2022/09/30 04:26:31;;;;;;;11.87;6.47;;;;;7.10;93237.00;;;;7395673;19;20160;-76
2022/09/30 04:28:58;;;;;;;13.03;7.27;;;;;7.10;93235.00;;;;7400024;19;20142;-77
2022/09/30 04:31:32;;;;;;;13.63;7.60;;;;;7.10;93234.00;;;;7408058;19;20160;-76
2022/09/30 04:34:02;;;;;;;14.83;7.37;;;;;7.00;93234.00;;;;7408317;19;20148;-76
2022/09/30 04:36:31;;;;;;;13.97;7.43;;;;;7.00;93240.00;;;;7413146;19;20564;-76
2022/09/30 04:39:06;;;;;;;15.73;7.60;;;;;7.00;93238.00;;;;7408847;19;20583;-75
2022/09/30 04:41:34;;;;;;;13.20;7.80;;;;;7.00;93251.00;;;;7405701;19;20145;-75
2022/09/30 04:44:05;;;;;;;14.23;7.53;;;;;6.90;93249.00;;;;7410947;19;20117;-75
2022/09/30 04:46:39;;;;;;;15.20;8.03;;;;;7.00;93258.00;;;;7415869;19;20137;-75
2022/09/30 04:49:07;;;;;;;13.23;7.50;;;;;7.10;93252.00;;;;7412334;19;20165;-75
2022/09/30 04:51:37;;;;;;;12.73;7.40;;;;;7.00;93260.00;;;;7411335;19;20137;-74
2022/09/30 04:54:13;;;;;;;18.37;7.93;;;;;7.10;93262.00;;;;7415361;19;20623;-75
2022/09/30 04:57:00;;;;;;;17.87;8.37;;;;;7.30;93263.00;;;;7415978;19;20156;-76
2022/09/30 04:59:34;;;;;;;19.00;8.00;;;;;7.50;93261.00;;;;7413192;19;20213;-75
2022/09/30 05:02:04;;;;;;;11.37;7.90;;;;;7.40;93256.00;;;;7415188;19;20117;-76
2022/09/30 05:04:32;;;;;;;15.77;9.37;;;;;7.50;93262.00;;;;7415819;19;20165;-75
2022/09/30 05:07:07;;;;;;;13.07;7.90;;;;;7.50;93266.00;;;;7416034;19;20129;-74
2022/09/30 05:09:35;;;;;;;20.47;7.83;;;;;7.30;93263.00;;;;7409791;19;20156;-76
2022/09/30 05:12:03;;;;;;;18.17;8.03;;;;;7.20;93268.00;;;;7411679;19;20193;-75
2022/09/30 05:14:37;;;;;;;10.63;6.83;;;;;7.00;93260.00;;;;7401473;19;20131;-76
2022/09/30 05:17:05;;;;;;;14.97;8.73;;;;;7.00;93266.00;;;;7392222;19;20720;-77
2022/09/30 05:19:34;;;;;;;13.77;8.27;;;;;7.00;93268.00;;;;7397297;19;20137;-76
2022/09/30 05:22:10;;;;;;;19.90;9.03;;;;;7.10;93267.00;;;;7399693;19;20149;-77
2022/09/30 05:24:39;;;;;;;17.67;9.17;;;;;7.10;93274.00;;;;7395577;19;20128;-77
2022/09/30 05:27:06;;;;;;;11.53;8.03;;;;;7.00;93282.00;;;;7398967;19;20133;-77
2022/09/30 05:29:41;;;;;;;18.13;8.20;;;;;7.10;93280.00;;;;7398086;19;20452;-77
2022/09/30 05:32:09;;;;;;;20.30;10.13;;;;;7.10;93289.00;;;;7399283;19;20158;-76
2022/09/30 05:34:37;;;;;;;14.87;7.90;;;;;7.10;93277.00;;;;7397648;19;20638;-77
2022/09/30 05:37:11;;;;;;;12.10;8.47;;;;;7.10;93284.00;;;;7397826;19;20198;-77
2022/09/30 05:39:39;;;;;;;12.20;8.10;;;;;7.10;93292.00;;;;7395050;19;20125;-76
2022/09/30 05:42:07;;;;;;;16.23;8.60;;;;;7.20;93288.00;;;;7396187;19;20152;-77
2022/09/30 05:44:45;;;;;;;17.60;8.37;;;;;7.20;93294.00;;;;7392288;19;20148;-76
2022/09/30 05:47:13;;;;;;;23.43;9.20;;;;;7.20;93295.00;;;;7393217;19;20220;-77
2022/09/30 05:49:40;;;;;;;13.67;8.57;;;;;7.30;93306.00;;;;7394309;19;20148;-76
2022/09/30 05:52:19;;;;;;;21.77;8.73;;;;;7.30;93304.00;;;;7395190;19;20216;-76
2022/09/30 05:54:48;;;;;;;17.93;9.87;;;;;7.40;93299.00;;;;7392965;19;20153;-76
2022/09/30 05:57:29;;;;;;;19.20;9.67;;;;;7.50;93307.00;;;;7391836;19;20649;-76
2022/09/30 05:59:57;;;;;;;23.53;8.33;;;;;7.60;93303.00;;;;7393248;19;20661;-76
2022/09/30 06:02:32;;;;;;;17.83;9.27;;;;;7.40;93307.00;;;;7390815;19;20506;-77
2022/09/30 06:05:00;;;;;;;18.43;9.10;;;;;7.50;93312.00;;;;7394844;19;20474;-77
2022/09/30 06:07:28;;;;;;;20.33;8.37;;;;;7.60;93307.00;;;;7392339;19;20136;-75
2022/09/30 06:10:03;;;;;;;16.97;8.53;;;;;7.60;93310.00;;;;7394136;19;20145;-76
2022/09/30 06:12:31;;;;;;;17.30;8.97;;;;;7.50;93321.00;;;;7390606;19;20161;-75
2022/09/30 06:14:58;;;;;;;21.77;9.27;;;;;7.50;93325.00;;;;7394316;19;20148;-75
2022/09/30 06:17:33;;;;;;;16.17;9.37;;;;;7.60;93326.00;;;;7392269;19;20627;-75
2022/09/30 06:20:04;;;;;;;21.63;9.77;;;;;7.80;93325.00;;;;7394524;19;20805;-75
2022/09/30 06:22:34;;;;;;;24.67;9.60;;;;;7.90;93333.00;;;;7391870;19;20161;-74
2022/09/30 06:25:09;;;;;;;19.07;8.83;;;;;7.80;93328.00;;;;7393922;19;20742;-75
2022/09/30 06:27:37;;;;;;;16.37;9.20;;;;;8.00;93331.00;;;;7393887;19;20155;-75
2022/09/30 06:30:05;;;;;;;16.57;8.23;;;;;8.00;93335.00;;;;7394053;19;20151;-76
2022/09/30 06:32:41;;;;;;;17.93;8.73;;;;;7.90;93338.00;;;;7391195;19;20241;-76
2022/09/30 06:35:09;;;;;;;13.87;8.60;;;;;7.80;93347.00;;;;7391853;19;20205;-75
2022/09/30 06:37:38;;;;;;;15.43;9.10;;;;;7.90;93352.00;;;;7394608;19;20132;-75
2022/09/30 06:40:12;;;;;;;19.60;9.87;;;;;8.00;93358.00;;;;7394238;19;20579;-76
2022/09/30 06:42:42;;;;;;;15.53;8.77;;;;;8.20;93357.00;;;;7389937;19;20640;-76
2022/09/30 06:45:12;;;;;;;13.87;9.30;;;;;8.20;93361.00;;;;7393022;19;20216;-76
2022/09/30 06:48:01;;;;;;;15.93;9.20;;;;;7.90;93355.00;;;;7393147;19;20153;-75
2022/09/30 06:50:31;;;;;;;15.60;9.07;;;;;7.90;93345.00;;;;7388849;19;20149;-75
2022/09/30 06:53:22;;;;;;;14.60;9.10;;;;;7.90;93358.00;;;;7390229;19;20148;-75
2022/09/30 06:55:55;;;;;;;15.50;8.37;;;;;8.00;93364.00;;;;7392185;19;20185;-76
2022/09/30 06:58:36;;;;;;;12.83;8.10;;;;;8.10;93365.00;;;;7394765;19;20173;-76
2022/09/30 07:01:14;;;;;;;12.77;8.63;;;;;8.20;93369.00;;;;7401592;19;20177;-77
2022/09/30 07:03:49;;;;;;;20.00;9.37;;;;;8.30;93361.00;;;;7398328;19;20144;-76
2022/09/30 07:06:21;;;;;;;14.40;9.07;;;;;8.40;93369.00;;;;7392601;19;20151;-77
2022/09/30 07:08:55;;;;;;;11.10;8.23;;;;;8.40;93376.00;;;;7389685;19;20176;-75
2022/09/30 07:11:23;;;;;;;11.60;7.03;;;;;8.50;93377.00;;;;7396047;19;20594;-76
2022/09/30 07:13:51;;;;;;;13.57;8.47;;;;;8.50;93373.00;;;;7396139;19;20180;-77
2022/09/30 07:16:33;;;;;;;16.70;9.07;;;;;8.60;93380.00;;;;7395303;19;20133;-76
2022/09/30 07:19:03;;;;;;;10.00;7.47;;;;;8.70;93390.00;;;;7397386;19;20153;-76
2022/09/30 07:21:37;;;;;;;13.30;7.68;;;;;8.70;93386.00;;;;7399918;19;20168;-76
2022/09/30 07:24:05;;;;;;;15.32;7.95;;;;;8.80;93397.00;;;;7396570;19;20139;-76
2022/09/30 07:26:33;;;;;;;22.95;7.90;;;;;8.90;93391.00;;;;7395620;19;20481;-76
2022/09/30 07:29:07;;;;;;;17.90;9.00;;;;;8.90;93390.00;;;;7397738;19;20128;-77
2022/09/30 07:31:35;;;;;;;13.70;8.53;;;;;9.00;93398.00;;;;7398442;19;20153;-75
2022/09/30 07:34:05;;;;;;;11.65;8.68;;;;;9.00;93398.00;;;;7399979;19;20181;-75
2022/09/30 07:36:40;;;;;;;22.13;9.73;;;;;8.90;93398.00;;;;7401229;19;20145;-76
2022/09/30 07:39:09;;;;;;;11.43;8.67;;;;;9.00;93396.00;;;;7399772;19;20156;-75
2022/09/30 07:41:39;;;;;;;11.93;7.82;;;;;8.90;93404.00;;;;7395607;19;20137;-75
2022/09/30 07:44:13;;;;;;;10.45;8.07;;;;;9.00;93415.00;;;;7392328;19;20124;-76
2022/09/30 07:46:43;;;;;;;10.52;6.75;;;;;9.10;93419.00;;;;7394315;19;20204;-76
2022/09/30 07:49:23;;;;;;;11.75;8.85;;;;;9.20;93414.00;;;;7397770;19;20145;-77
2022/09/30 07:51:59;;;;;;;11.32;7.80;;;;;9.20;93413.00;;;;7398565;19;20117;-77
2022/09/30 07:54:30;;;;;;;16.38;8.15;;;;;9.20;93424.00;;;;7394207;19;20212;-77
2022/09/30 07:57:17;;;;;;;15.30;9.90;;;;;9.20;93428.00;;;;7394462;19;20183;-77
2022/09/30 07:59:53;;;;;;;10.77;7.80;;;;;9.20;93433.00;;;;7398200;19;20148;-77
2022/09/30 08:02:49;;;;;;;11.88;7.47;;;;;9.10;93441.00;;;;7396025;19;20129;-76
2022/09/30 08:05:17;;;;;;;8.88;7.00;;;;;9.00;93446.00;;;;7397234;19;20174;-76
2022/09/30 08:07:51;;;;;;;10.37;6.73;;;;;8.90;93437.00;;;;7399415;19;20139;-75
2022/09/30 08:10:21;;;;;;;10.10;5.97;;;;;8.80;93440.00;;;;7398189;19;20605;-75
2022/09/30 08:12:49;;;;;;;8.70;6.10;;;;;8.80;93447.00;;;;7396940;19;20144;-75
2022/09/30 08:15:28;;;;;;;11.05;6.55;;;;;8.70;93451.00;;;;7401418;19;20741;-75
2022/09/30 08:17:57;;;;;;;9.45;6.13;;;;;8.80;93456.00;;;;7403542;19;20559;-75
2022/09/30 08:20:32;;;;;;;10.48;6.30;;;;;8.90;93462.00;;;;7395873;19;20139;-75
2022/09/30 08:22:59;;;;;;;10.85;6.50;;;;;9.00;93462.00;;;;7395080;19;20607;-76
2022/09/30 08:25:29;;;;;;;11.73;7.18;;;;;9.30;93460.00;;;;7396106;19;20168;-75
2022/09/30 08:28:04;;;;;;;8.13;6.10;;;;;9.30;93463.00;;;;7396799;19;20753;-76
2022/09/30 08:30:34;;;;;;;12.15;7.75;;;;;9.40;93469.00;;;;7391113;19;20750;-75
2022/09/30 08:33:02;;;;;;;10.00;7.53;;;;;9.60;93465.00;;;;7396761;19;20503;-75
2022/09/30 08:35:36;;;;;;;11.40;6.88;;;;;9.70;93478.00;;;;7398427;19;20575;-75
2022/09/30 08:38:06;;;;;;;11.35;6.75;;;;;9.80;93478.00;;;;7397780;19;20228;-75
2022/09/30 08:40:49;;;;;;;10.90;6.88;;;;;9.80;93482.00;;;;7396148;19;20152;-74
2022/09/30 08:44:11;;;;;;;10.15;7.03;;;;;9.80;93478.00;;;;7402428;19;20140;-76
2022/09/30 08:46:54;;;;;;;8.85;6.72;;;;;9.90;93478.00;;;;7396993;19;20133;-75
2022/09/30 08:49:43;;;;;;;11.45;7.60;;;;;10.10;93494.00;;;;7396661;19;20129;-75
2022/09/30 08:52:18;;;;;;;8.90;5.97;;;;;10.20;93494.00;;;;7396847;19;20132;-75
2022/09/30 08:55:28;;;;;;;12.27;6.88;;;;;10.20;93482.00;;;;7394341;19;20149;-76
2022/09/30 08:58:03;;;;;;;9.85;7.05;;;;;10.60;93482.00;;;;7394458;19;20184;-75
2022/09/30 09:00:41;;;;;;;12.65;7.90;;;;;11.00;93477.00;;;;7392657;19;20165;-75
2022/09/30 09:03:13;;;;;;;10.50;7.25;;;;;11.10;93478.00;;;;7392126;19;20502;-75
2022/09/30 09:05:53;;;;;;;7.68;6.05;;;;;11.20;93470.00;;;;7394972;19;21029;-75
2022/09/30 09:08:26;;;;;;;10.82;6.68;;;;;11.20;93479.00;;;;7396715;19;20222;-75
2022/09/30 09:11:45;;;;;;;12.15;6.28;;;;;11.50;93471.00;;;;7395777;19;20129;-75
2022/09/30 09:14:20;;;;;;;9.48;5.75;;;;;12.20;93467.00;;;;7393637;19;20125;-76
2022/09/30 09:17:08;;;;;;;14.20;6.15;;;;;12.30;93476.00;;;;7394559;19;20144;-74
2022/09/30 09:19:55;;;;;;;8.00;5.60;;;;;12.60;93482.00;;;;7396033;19;20485;-75
2022/09/30 09:22:36;;;;;;;10.30;6.25;;;;;12.70;93471.00;;;;7391378;19;20185;-75
2022/09/30 09:25:04;;;;;;;10.20;6.22;;;;;13.20;93468.00;;;;7392703;19;20137;-75
2022/09/30 09:28:04;;;;;;;8.38;5.30;;;;;13.90;93467.00;;;;7395567;19;20164;-76
2022/09/30 09:30:41;;;;;;;7.88;5.53;;;;;13.80;93457.00;;;;7392874;19;20152;-76
2022/09/30 09:33:22;;;;;;;8.45;5.10;;;;;14.10;93462.00;;;;7394467;19;20133;-76
2022/09/30 09:35:59;;;;;;;9.60;4.82;;;;;14.50;93464.00;;;;7392650;19;20596;-74
2022/09/30 09:39:13;;;;;;;6.32;4.28;;;;;14.80;93465.00;;;;7393198;19;20480;-75
2022/09/30 09:42:00;;;;;;;8.15;4.22;;;;;13.40;93471.00;;;;7389979;19;20164;-75
2022/09/30 09:44:35;;;;;;;5.70;3.83;;;;;13.90;93472.00;;;;7389524;19;20603;-74
2022/09/30 09:47:12;;;;;;;7.22;4.22;;;;;13.90;93487.00;;;;7393296;19;20623;-75
2022/09/30 09:49:59;;;;;;;8.98;4.78;;;;;13.60;93472.00;;;;7394655;19;20151;-76
2022/09/30 09:52:43;;;;;;;6.22;3.58;;;;;13.90;93475.00;;;;7391082;19;20169;-76
2022/09/30 09:55:21;;;;;;;5.32;3.67;;;;;14.40;93480.00;;;;7395507;19;20129;-76
2022/09/30 09:58:05;;;;;;;9.90;3.67;;;;;14.20;93478.00;;;;7390431;19;20184;-75
2022/09/30 10:03:12;;;;;;;4.20;2.70;;;;;14.80;93468.00;;;;7393606;19;20157;-74
2022/09/30 10:05:39;;;;;;;3.38;2.50;;;;;14.90;93485.00;;;;7391255;19;20136;-75
2022/09/30 10:08:18;;;;;;;3.40;2.55;;;;;14.80;93488.00;;;;7394374;19;20140;-75
2022/09/30 10:10:47;;;;;;;4.43;2.67;;;;;15.30;93487.00;;;;7391611;19;20136;-75
2022/09/30 10:13:25;;;;;;;5.90;2.70;;;;;15.20;93497.00;;;;7391836;19;20191;-74
2022/09/30 10:15:59;;;;;;;5.13;2.63;;;;;14.40;93503.00;;;;7391627;19;20182;-75
2022/09/30 10:18:35;;;;;;;4.50;2.20;;;;;14.10;93496.00;;;;7390014;19;20120;-75
2022/09/30 10:21:20;;;;;;;3.70;2.20;;;;;13.80;93499.00;;;;7393350;19;20996;-75
2022/09/30 10:23:58;;;;;;;5.85;2.45;;;;;13.70;93494.00;;;;7392131;19;20197;-75
2022/09/30 10:26:27;;;;;;;3.97;2.30;;;;;13.80;93495.00;;;;7391093;19;20141;-75
2022/09/30 10:29:22;;;;;;;6.13;2.30;;;;;14.00;93495.00;;;;7391868;19;20152;-76
2022/09/30 10:31:51;;;;;;;4.20;2.40;;;;;14.40;93498.00;;;;7392567;19;20153;-75
2022/09/30 10:34:33;;;;;;;6.18;2.10;;;;;14.70;93509.00;;;;7389147;19;20583;-75
2022/09/30 10:37:07;;;;;;;3.58;2.58;;;;;14.60;93509.00;;;;7392477;19;20506;-74
2022/09/30 10:39:43;;;;;;;4.43;1.90;;;;;14.00;93511.00;;;;7393522;19;20128;-75
2022/09/30 10:42:20;;;;;;;5.15;2.40;;;;;13.50;93521.00;;;;7394017;19;20129;-75
2022/09/30 10:45:00;;;;;;;4.40;2.28;;;;;13.30;93519.00;;;;7391011;19;20135;-74
2022/09/30 10:47:30;;;;;;;5.85;3.00;;;;;13.40;93517.00;;;;7389431;19;20207;-75
2022/09/30 10:50:12;;;;;;;5.25;2.67;;;;;13.40;93523.00;;;;7392638;19;20178;-76
2022/09/30 10:52:55;;;;;;;5.22;2.63;;;;;13.40;93524.00;;;;7388854;19;20511;-77
2022/09/30 10:55:42;;;;;;;7.93;3.30;;;;;13.50;93518.00;;;;7392432;19;20180;-75
2022/09/30 10:58:43;;;;;;;3.38;2.80;;;;;13.30;93514.00;;;;7391683;19;20172;-74
2022/09/30 11:01:37;;;;;;;7.22;2.60;;;;;13.40;93528.00;;;;7390865;19;20159;-74
2022/09/30 11:04:24;;;;;;;4.60;2.75;;;;;13.50;93521.00;;;;7391744;19;20144;-75
2022/09/30 11:07:15;;;;;;;3.10;2.30;;;;;14.00;93509.00;;;;7390971;19;20216;-75
2022/09/30 11:10:04;;;;;;;4.18;2.28;;;;;14.70;93518.00;;;;7390581;19;20159;-73
2022/09/30 11:12:44;;;;;;;4.25;2.00;;;;;14.60;93517.00;;;;7389553;19;20556;-73
2022/09/30 11:15:22;;;;;;;3.05;2.33;;;;;14.50;93511.00;;;;7390568;19;20144;-73
2022/09/30 11:18:03;;;;;;;2.72;1.90;;;;;14.50;93515.00;;;;7389843;19;20670;-75
2022/09/30 11:20:36;;;;;;;3.63;2.28;;;;;14.40;93522.00;;;;7389684;19;20153;-74
2022/09/30 11:23:14;;;;;;;3.03;2.45;;;;;14.40;93516.00;;;;7392063;19;20129;-74
2022/09/30 11:25:50;;;;;;;3.83;2.45;;;;;14.30;93515.00;;;;7388076;19;20141;-75
2022/09/30 11:28:24;;;;;;;4.65;2.58;;;;;14.50;93500.00;;;;7389797;19;20149;-74
2022/09/30 11:31:07;;;;;;;3.72;2.92;;;;;15.80;93503.00;;;;7391177;19;20584;-74
2022/09/30 11:33:53;;;;;;;3.88;2.90;;;;;17.10;93497.00;;;;7389143;19;20580;-75
2022/09/30 11:36:35;;;;;;;4.07;2.72;;;;;18.00;93511.00;;;;7388323;19;20152;-74
2022/09/30 11:39:13;;;;;;;3.08;2.65;;;;;17.90;93503.00;;;;7389213;19;20220;-74
2022/09/30 11:41:48;;;;;;;3.33;2.33;;;;;17.90;93522.00;;;;7389999;19;20153;-74
2022/09/30 11:44:35;;;;;;;3.55;2.17;;;;;17.90;93507.00;;;;7389589;19;20600;-74
2022/09/30 11:47:24;;;;;;;3.42;2.33;;;;;17.90;93506.00;;;;7390241;19;20552;-74
2022/09/30 11:50:06;;;;;;;4.00;2.55;;;;;18.70;93505.00;;;;7391730;19;20160;-74
2022/09/30 11:52:56;;;;;;;3.40;2.50;;;;;19.20;93512.00;;;;7386741;19;20144;-75
2022/09/30 11:55:45;;;;;;;2.33;2.00;;;;;19.10;93508.00;;;;7389200;19;20533;-76
2022/09/30 11:58:35;;;;;;;3.45;1.88;;;;;18.10;93528.00;;;;7393393;19;20157;-75
2022/09/30 12:01:39;;;;;;;2.85;2.00;;;;;16.60;93521.00;;;;7393321;19;20180;-74
2022/09/30 12:04:39;;;;;;;4.57;2.17;;;;;17.10;93521.00;;;;7394604;19;20148;-74
2022/09/30 12:07:20;;;;;;;4.15;2.33;;;;;16.40;93539.00;;;;7392477;19;20137;-75
2022/09/30 12:09:58;;;;;;;2.67;2.20;;;;;15.90;93548.00;;;;7397294;19;20140;-74
2022/09/30 12:12:33;;;;;;;4.32;2.38;;;;;15.50;93546.00;;;;7395720;19;20583;-73
2022/09/30 12:15:04;;;;;;;6.80;3.55;;;;;15.30;93542.00;;;;7395484;19;20641;-74
2022/09/30 12:17:54;;;;;;;3.15;2.55;;;;;14.70;93541.00;;;;7394067;19;20155;-73
2022/09/30 12:21:21;;;;;;;9.18;2.65;;;;;14.30;93552.00;;;;7392780;19;20688;-73
2022/09/30 12:24:00;;;;;;;7.05;3.60;;;;;14.10;93557.00;;;;7392645;19;20240;-74
2022/09/30 12:26:35;;;;;;;7.93;3.40;;;;;14.40;93547.00;;;;7393717;19;20596;-73
2022/09/30 12:32:40;;;;;;;6.15;2.78;;;;;16.00;93546.00;;;;7395926;19;20145;-73
2022/09/30 12:35:39;;;;;;;4.00;2.60;;;;;15.60;93554.00;;;;7392721;19;20577;-74
2022/09/30 12:38:35;;;;;;;5.40;2.55;;;;;15.10;93548.00;;;;7391755;19;20152;-74
2022/09/30 12:41:24;;;;;;;4.13;2.60;;;;;14.60;93555.00;;;;7395405;19;20145;-75
2022/09/30 12:44:21;;;;;;;3.92;2.47;;;;;14.60;93560.00;;;;7395058;19;20149;-75
2022/09/30 12:47:22;;;;;;;7.15;2.92;;;;;14.20;93558.00;;;;7394849;19;20723;-73
2022/09/30 12:50:05;;;;;;;4.70;2.80;;;;;14.40;93560.00;;;;7393051;19;20141;-75
2022/09/30 12:52:35;;;;;;;5.72;2.75;;;;;14.40;93557.00;;;;7393709;19;20180;-75
2022/09/30 12:55:24;;;;;;;8.15;2.80;;;;;14.20;93566.00;;;;7393168;19;20160;-75
2022/09/30 12:58:01;;;;;;;5.70;2.80;;;;;14.00;93563.00;;;;7393425;19;20519;-73
2022/09/30 13:00:44;;;;;;;4.18;2.80;;;;;14.00;93565.00;;;;7393077;19;20156;-75
2022/09/30 13:03:18;;;;;;;4.70;2.80;;;;;13.90;93558.00;;;;7396240;19;20596;-75
2022/09/30 13:06:01;;;;;;;6.22;2.47;;;;;13.90;93560.00;;;;7390876;19;20163;-74
2022/09/30 13:09:10;;;;;;;3.17;2.45;;;;;14.10;93570.00;;;;7392391;19;20140;-75
2022/09/30 13:11:54;;;;;;;4.15;3.13;;;;;14.20;93557.00;;;;7393365;19;20162;-74
2022/09/30 13:14:43;;;;;;;4.35;2.90;;;;;14.10;93564.00;;;;7394713;19;20477;-74
2022/09/30 13:17:17;;;;;;;4.43;2.53;;;;;13.90;93566.00;;;;7394594;19;20133;-74
2022/09/30 13:19:53;;;;;;;6.07;3.13;;;;;13.80;93573.00;;;;7394655;19;20611;-75
2022/09/30 13:22:40;;;;;;;5.93;2.75;;;;;13.60;93574.00;;;;7393317;19;20129;-75
2022/09/30 13:25:16;;;;;;;2.95;2.40;;;;;13.80;93579.00;;;;7390769;19;20152;-75
2022/09/30 13:28:12;;;;;;;3.85;2.85;;;;;14.10;93580.00;;;;7392827;19;20135;-74